sensor_id;sensor_type;location;lat;lon;timestamp;pressure;altitude;pressure_sealevel;temperature;humidity
34185;BME280;20454;48.100;11.776;2022-10-16T00:01:11;95484.06;;;12.47;100.00
34185;BME280;20454;48.100;11.776;2022-10-16T00:03:39;95486.53;;;12.49;100.00
34185;BME280;20454;48.100;11.776;2022-10-16T00:06:06;95487.69;;;12.48;100.00
34185;BME280;20454;48.100;11.776;2022-10-16T00:08:33;95484.91;;;12.48;100.00
34185;BME280;20454;48.100;11.776;2022-10-16T00:11:17;95481.63;;;12.46;100.00
34185;BME280;20454;48.100;11.776;2022-10-16T00:13:44;95471.13;;;12.43;100.00
34185;BME280;20454;48.100;11.776;2022-10-16T00:16:12;95467.38;;;12.39;100.00
34185;BME280;20454;48.100;11.776;2022-10-16T00:18:39;95486.56;;;12.40;100.00
34185;BME280;20454;48.100;11.776;2022-10-16T00:21:12;95480.34;;;12.35;100.00
34185;BME280;20454;48.100;11.776;2022-10-16T00:23:38;95487.38;;;12.41;100.00
34185;BME280;20454;48.100;11.776;2022-10-16T00:26:08;95491.66;;;12.38;100.00
34185;BME280;20454;48.100;11.776;2022-10-16T00:28:35;95492.50;;;12.39;100.00
34185;BME280;20454;48.100;11.776;2022-10-16T00:31:11;95497.22;;;12.38;100.00
34185;BME280;20454;48.100;11.776;2022-10-16T00:33:39;95495.13;;;12.35;100.00
34185;BME280;20454;48.100;11.776;2022-10-16T00:36:07;95489.41;;;12.32;100.00
34185;BME280;20454;48.100;11.776;2022-10-16T00:38:33;95484.13;;;12.30;100.00
34185;BME280;20454;48.100;11.776;2022-10-16T00:41:00;95490.03;;;12.29;100.00
34185;BME280;20454;48.100;11.776;2022-10-16T00:46:09;95484.00;;;12.27;100.00
34185;BME280;20454;48.100;11.776;2022-10-16T00:48:36;95485.16;;;12.26;100.00
34185;BME280;20454;48.100;11.776;2022-10-16T00:51:02;95484.31;;;12.25;100.00
34185;BME280;20454;48.100;11.776;2022-10-16T00:53:30;95484.16;;;12.22;100.00
34185;BME280;20454;48.100;11.776;2022-10-16T00:55:56;95488.09;;;12.21;100.00
34185;BME280;20454;48.100;11.776;2022-10-16T00:58:22;95481.72;;;12.20;100.00
34185;BME280;20454;48.100;11.776;2022-10-16T01:00:48;95479.91;;;12.16;100.00
34185;BME280;20454;48.100;11.776;2022-10-16T01:03:33;95478.63;;;12.13;100.00
34185;BME280;20454;48.100;11.776;2022-10-16T01:06:24;95483.38;;;12.13;100.00
34185;BME280;20454;48.100;11.776;2022-10-16T01:09:21;95486.50;;;12.11;100.00
34185;BME280;20454;48.100;11.776;2022-10-16T01:12:50;95487.16;;;12.08;100.00
34185;BME280;20454;48.100;11.776;2022-10-16T01:18:06;95493.06;;;12.07;100.00
34185;BME280;20454;48.100;11.776;2022-10-16T01:20:54;95497.69;;;12.03;100.00
34185;BME280;20454;48.100;11.776;2022-10-16T01:29:21;95494.91;;;12.03;100.00
34185;BME280;20454;48.100;11.776;2022-10-16T01:31:53;95507.34;;;12.05;100.00
34185;BME280;20454;48.100;11.776;2022-10-16T01:34:31;95515.38;;;12.07;100.00
34185;BME280;20454;48.100;11.776;2022-10-16T01:37:09;95511.44;;;12.08;100.00
34185;BME280;20454;48.100;11.776;2022-10-16T01:39:39;95507.00;;;12.07;100.00
34185;BME280;20454;48.100;11.776;2022-10-16T01:42:13;95509.78;;;12.07;100.00
34185;BME280;20454;48.100;11.776;2022-10-16T01:44:42;95502.91;;;12.04;100.00
34185;BME280;20454;48.100;11.776;2022-10-16T01:47:10;95509.78;;;12.07;100.00
34185;BME280;20454;48.100;11.776;2022-10-16T01:49:38;95506.53;;;12.05;100.00
34185;BME280;20454;48.100;11.776;2022-10-16T01:52:09;95507.16;;;12.02;100.00
34185;BME280;20454;48.100;11.776;2022-10-16T01:54:39;95511.78;;;11.98;100.00
34185;BME280;20454;48.100;11.776;2022-10-16T01:57:07;95509.66;;;11.95;100.00
34185;BME280;20454;48.100;11.776;2022-10-16T01:59:39;95511.94;;;11.93;100.00
34185;BME280;20454;48.100;11.776;2022-10-16T02:02:08;95517.06;;;11.91;100.00
34185;BME280;20454;48.100;11.776;2022-10-16T02:04:43;95511.31;;;11.87;100.00
34185;BME280;20454;48.100;11.776;2022-10-16T02:07:11;95509.53;;;11.83;100.00
34185;BME280;20454;48.100;11.776;2022-10-16T02:09:37;95503.13;;;11.82;100.00
34185;BME280;20454;48.100;11.776;2022-10-16T02:12:31;95506.22;;;11.81;100.00
34185;BME280;20454;48.100;11.776;2022-10-16T02:14:55;95508.22;;;11.80;100.00
34185;BME280;20454;48.100;11.776;2022-10-16T02:17:22;95501.00;;;11.79;100.00
34185;BME280;20454;48.100;11.776;2022-10-16T02:19:51;95501.31;;;11.78;100.00
34185;BME280;20454;48.100;11.776;2022-10-16T02:22:36;95493.28;;;11.76;100.00
34185;BME280;20454;48.100;11.776;2022-10-16T02:25:18;95500.84;;;11.76;100.00
34185;BME280;20454;48.100;11.776;2022-10-16T02:28:27;95495.09;;;11.72;100.00
34185;BME280;20454;48.100;11.776;2022-10-16T02:31:01;95499.69;;;11.77;100.00
34185;BME280;20454;48.100;11.776;2022-10-16T02:33:29;95511.63;;;11.77;100.00
34185;BME280;20454;48.100;11.776;2022-10-16T02:35:57;95505.59;;;11.75;100.00
34185;BME280;20454;48.100;11.776;2022-10-16T02:38:24;95511.00;;;11.72;100.00
34185;BME280;20454;48.100;11.776;2022-10-16T02:40:51;95512.63;;;11.73;100.00
34185;BME280;20454;48.100;11.776;2022-10-16T02:43:17;95506.09;;;11.69;100.00
34185;BME280;20454;48.100;11.776;2022-10-16T02:45:43;95503.94;;;11.66;100.00
34185;BME280;20454;48.100;11.776;2022-10-16T02:48:09;95502.31;;;11.65;100.00
34185;BME280;20454;48.100;11.776;2022-10-16T02:50:34;95500.69;;;11.64;100.00
34185;BME280;20454;48.100;11.776;2022-10-16T02:53:00;95494.28;;;11.63;100.00
34185;BME280;20454;48.100;11.776;2022-10-16T02:55:26;95502.63;;;11.63;100.00
34185;BME280;20454;48.100;11.776;2022-10-16T02:57:53;95500.19;;;11.62;100.00
34185;BME280;20454;48.100;11.776;2022-10-16T03:00:19;95503.47;;;11.64;100.00
34185;BME280;20454;48.100;11.776;2022-10-16T03:02:45;95508.22;;;11.63;100.00
34185;BME280;20454;48.100;11.776;2022-10-16T03:05:12;95508.22;;;11.63;100.00
34185;BME280;20454;48.100;11.776;2022-10-16T03:07:39;95507.88;;;11.65;100.00
34185;BME280;20454;48.100;11.776;2022-10-16T03:10:05;95506.56;;;11.62;100.00
34185;BME280;20454;48.100;11.776;2022-10-16T03:12:31;95519.72;;;11.62;100.00
34185;BME280;20454;48.100;11.776;2022-10-16T03:14:57;95506.25;;;11.64;100.00
34185;BME280;20454;48.100;11.776;2022-10-16T03:17:24;95503.31;;;11.60;100.00
34185;BME280;20454;48.100;11.776;2022-10-16T03:19:50;95512.47;;;11.61;100.00
34185;BME280;20454;48.100;11.776;2022-10-16T03:22:16;95511.66;;;11.60;100.00
34185;BME280;20454;48.100;11.776;2022-10-16T03:24:41;95500.53;;;11.60;100.00
34185;BME280;20454;48.100;11.776;2022-10-16T03:27:07;95509.19;;;11.59;100.00
34185;BME280;20454;48.100;11.776;2022-10-16T03:29:33;95506.69;;;11.57;100.00
34185;BME280;20454;48.100;11.776;2022-10-16T03:31:59;95518.41;;;11.59;100.00
34185;BME280;20454;48.100;11.776;2022-10-16T03:34:25;95516.75;;;11.58;100.00
34185;BME280;20454;48.100;11.776;2022-10-16T03:36:52;95518.19;;;11.56;100.00
34185;BME280;20454;48.100;11.776;2022-10-16T03:39:19;95523.25;;;11.54;100.00
34185;BME280;20454;48.100;11.776;2022-10-16T03:41:45;95517.53;;;11.50;100.00
34185;BME280;20454;48.100;11.776;2022-10-16T03:44:12;95529.19;;;11.52;100.00
34185;BME280;20454;48.100;11.776;2022-10-16T03:46:38;95521.47;;;11.49;100.00
34185;BME280;20454;48.100;11.776;2022-10-16T03:49:04;95520.31;;;11.50;100.00
34185;BME280;20454;48.100;11.776;2022-10-16T03:51:29;95515.56;;;11.51;100.00
34185;BME280;20454;48.100;11.776;2022-10-16T03:53:55;95521.31;;;11.54;100.00
34185;BME280;20454;48.100;11.776;2022-10-16T03:56:21;95536.53;;;11.57;100.00
34185;BME280;20454;48.100;11.776;2022-10-16T03:58:47;95533.91;;;11.52;100.00
34185;BME280;20454;48.100;11.776;2022-10-16T05:30:40;95512.41;;;12.12;100.00
34185;BME280;20454;48.100;11.776;2022-10-16T05:33:05;95514.88;;;12.13;100.00
34185;BME280;20454;48.100;11.776;2022-10-16T05:35:31;95516.69;;;12.18;100.00
34185;BME280;20454;48.100;11.776;2022-10-16T05:37:57;95528.00;;;12.21;100.00
34185;BME280;20454;48.100;11.776;2022-10-16T05:40:23;95528.94;;;12.25;100.00
34185;BME280;20454;48.100;11.776;2022-10-16T05:42:48;95540.63;;;12.27;100.00
34185;BME280;20454;48.100;11.776;2022-10-16T05:45:14;95537.63;;;12.32;100.00
34185;BME280;20454;48.100;11.776;2022-10-16T05:47:40;95539.25;;;12.33;100.00
34185;BME280;20454;48.100;11.776;2022-10-16T05:50:06;95539.41;;;12.37;100.00
34185;BME280;20454;48.100;11.776;2022-10-16T05:52:32;95545.16;;;12.40;100.00
34185;BME280;20454;48.100;11.776;2022-10-16T05:54:58;95543.66;;;12.43;100.00
34185;BME280;20454;48.100;11.776;2022-10-16T05:57:23;95552.03;;;12.43;100.00
34185;BME280;20454;48.100;11.776;2022-10-16T05:59:49;95557.78;;;12.46;100.00
34185;BME280;20454;48.100;11.776;2022-10-16T06:02:15;95561.53;;;12.50;100.00
34185;BME280;20454;48.100;11.776;2022-10-16T06:04:41;95560.06;;;12.53;100.00
34185;BME280;20454;48.100;11.776;2022-10-16T06:07:07;95572.03;;;12.53;100.00
34185;BME280;20454;48.100;11.776;2022-10-16T06:09:33;95575.31;;;12.55;100.00
34185;BME280;20454;48.100;11.776;2022-10-16T06:11:59;95571.53;;;12.60;100.00
34185;BME280;20454;48.100;11.776;2022-10-16T06:14:24;95569.53;;;12.60;100.00
34185;BME280;20454;48.100;11.776;2022-10-16T06:16:50;95569.69;;;12.64;100.00
34185;BME280;20454;48.100;11.776;2022-10-16T06:19:16;95586.75;;;12.71;100.00
34185;BME280;20454;48.100;11.776;2022-10-16T06:21:43;95584.94;;;12.75;100.00
34185;BME280;20454;48.100;11.776;2022-10-16T06:24:09;95582.31;;;12.78;100.00
34185;BME280;20454;48.100;11.776;2022-10-16T06:26:35;95583.63;;;12.81;100.00
34185;BME280;20454;48.100;11.776;2022-10-16T06:29:01;95587.88;;;12.87;100.00
34185;BME280;20454;48.100;11.776;2022-10-16T06:31:28;95587.19;;;12.90;100.00
34185;BME280;20454;48.100;11.776;2022-10-16T06:33:57;95586.38;;;12.89;100.00
34185;BME280;20454;48.100;11.776;2022-10-16T06:36:24;95585.88;;;12.96;100.00
34185;BME280;20454;48.100;11.776;2022-10-16T06:38:50;95582.91;;;13.01;100.00
34185;BME280;20454;48.100;11.776;2022-10-16T06:41:20;95584.69;;;13.05;100.00
34185;BME280;20454;48.100;11.776;2022-10-16T06:43:47;95596.63;;;13.14;100.00
34185;BME280;20454;48.100;11.776;2022-10-16T06:46:17;95594.13;;;13.21;100.00
34185;BME280;20454;48.100;11.776;2022-10-16T06:48:43;95602.34;;;13.26;100.00
34185;BME280;20454;48.100;11.776;2022-10-16T06:51:11;95602.16;;;13.31;100.00
34185;BME280;20454;48.100;11.776;2022-10-16T06:53:48;95611.47;;;13.35;100.00
34185;BME280;20454;48.100;11.776;2022-10-16T06:56:22;95612.78;;;13.38;100.00
34185;BME280;20454;48.100;11.776;2022-10-16T06:58:50;95611.63;;;13.39;100.00
34185;BME280;20454;48.100;11.776;2022-10-16T07:01:18;95625.41;;;13.44;100.00
34185;BME280;20454;48.100;11.776;2022-10-16T07:03:46;95621.94;;;13.47;100.00
34185;BME280;20454;48.100;11.776;2022-10-16T07:06:16;95617.66;;;13.49;100.00
34185;BME280;20454;48.100;11.776;2022-10-16T07:08:44;95623.38;;;13.53;100.00
34185;BME280;20454;48.100;11.776;2022-10-16T07:11:17;95634.03;;;13.59;100.00
34185;BME280;20454;48.100;11.776;2022-10-16T07:13:45;95631.03;;;13.64;100.00
34185;BME280;20454;48.100;11.776;2022-10-16T07:16:15;95640.72;;;13.67;100.00
34185;BME280;20454;48.100;11.776;2022-10-16T07:18:42;95641.00;;;13.74;100.00
34185;BME280;20454;48.100;11.776;2022-10-16T07:21:16;95635.56;;;13.77;100.00
34185;BME280;20454;48.100;11.776;2022-10-16T07:23:43;95634.22;;;13.83;100.00
34185;BME280;20454;48.100;11.776;2022-10-16T08:36:07;95675.94;;;17.37;88.86
34185;BME280;20454;48.100;11.776;2022-10-16T08:38:33;95681.19;;;17.54;89.56
34185;BME280;20454;48.100;11.776;2022-10-16T08:41:41;95684.94;;;17.74;87.85
34185;BME280;20454;48.100;11.776;2022-10-16T08:44:35;95691.28;;;18.02;88.15
34185;BME280;20454;48.100;11.776;2022-10-16T08:47:25;95686.53;;;18.21;88.90
34185;BME280;20454;48.100;11.776;2022-10-16T08:50:02;95686.72;;;18.44;86.32
34185;BME280;20454;48.100;11.776;2022-10-16T08:52:38;95696.00;;;18.63;84.76
34185;BME280;20454;48.100;11.776;2022-10-16T08:55:05;95690.84;;;18.84;83.37
34185;BME280;20454;48.100;11.776;2022-10-16T08:57:31;95697.22;;;19.00;81.93
34185;BME280;20454;48.100;11.776;2022-10-16T09:00:12;95699.78;;;19.24;80.99
34185;BME280;20454;48.100;11.776;2022-10-16T09:03:11;95696.63;;;19.48;80.01
34185;BME280;20454;48.100;11.776;2022-10-16T09:06:02;95691.00;;;19.71;78.55
34185;BME280;20454;48.100;11.776;2022-10-16T09:12:21;95691.22;;;20.26;76.87
34185;BME280;20454;48.100;11.776;2022-10-16T09:17:57;95705.06;;;20.86;71.05
34185;BME280;20454;48.100;11.776;2022-10-16T09:23:18;95687.59;;;21.40;70.31
34185;BME280;20454;48.100;11.776;2022-10-16T09:25:48;95700.69;;;21.88;70.42
34185;BME280;20454;48.100;11.776;2022-10-16T09:28:17;95699.50;;;22.32;68.13
34185;BME280;20454;48.100;11.776;2022-10-16T09:30:44;95714.06;;;22.81;66.07
34185;BME280;20454;48.100;11.776;2022-10-16T09:33:12;95698.56;;;23.29;62.87
34185;BME280;20454;48.100;11.776;2022-10-16T09:35:47;95688.63;;;23.84;62.00
34185;BME280;20454;48.100;11.776;2022-10-16T09:38:40;95686.69;;;24.30;57.52
34185;BME280;20454;48.100;11.776;2022-10-16T09:43:54;95695.97;;;25.15;55.02
34185;BME280;20454;48.100;11.776;2022-10-16T09:46:35;95689.72;;;25.69;55.95
34185;BME280;20454;48.100;11.776;2022-10-16T09:49:05;95700.19;;;26.00;52.41
34185;BME280;20454;48.100;11.776;2022-10-16T09:51:34;95701.28;;;26.13;50.56
34185;BME280;20454;48.100;11.776;2022-10-16T09:56:38;95692.34;;;26.72;48.88
34185;BME280;20454;48.100;11.776;2022-10-16T10:01:50;95694.47;;;27.45;50.30
34185;BME280;20454;48.100;11.776;2022-10-16T10:04:18;95695.41;;;27.69;44.72
34185;BME280;20454;48.100;11.776;2022-10-16T10:06:54;95701.03;;;27.79;43.65
34185;BME280;20454;48.100;11.776;2022-10-16T10:12:05;95688.13;;;28.51;45.50
34185;BME280;20454;48.100;11.776;2022-10-16T10:14:43;95695.00;;;28.83;44.27
34185;BME280;20454;48.100;11.776;2022-10-16T10:17:22;95699.25;;;28.98;41.96
34185;BME280;20454;48.100;11.776;2022-10-16T10:19:58;95697.81;;;29.10;40.37
34185;BME280;20454;48.100;11.776;2022-10-16T10:22:42;95694.75;;;29.20;41.54
34185;BME280;20454;48.100;11.776;2022-10-16T10:28:18;95688.47;;;29.48;38.60
34185;BME280;20454;48.100;11.776;2022-10-16T10:31:20;95684.59;;;29.58;39.43
34185;BME280;20454;48.100;11.776;2022-10-16T10:36:50;95681.19;;;29.44;38.57
34185;BME280;20454;48.100;11.776;2022-10-16T10:39:38;95677.91;;;29.22;38.97
34185;BME280;20454;48.100;11.776;2022-10-16T10:53:21;95695.59;;;27.88;38.01
34185;BME280;20454;48.100;11.776;2022-10-16T10:56:16;95687.66;;;27.66;39.09
34185;BME280;20454;48.100;11.776;2022-10-16T11:01:54;95702.56;;;27.10;38.98
34185;BME280;20454;48.100;11.776;2022-10-16T11:04:39;95703.16;;;26.91;39.66
34185;BME280;20454;48.100;11.776;2022-10-16T11:07:22;95690.34;;;26.66;41.30
34185;BME280;20454;48.100;11.776;2022-10-16T11:09:58;95696.63;;;26.40;38.49
34185;BME280;20454;48.100;11.776;2022-10-16T11:12:41;95706.56;;;26.21;38.90
34185;BME280;20454;48.100;11.776;2022-10-16T11:15:23;95694.78;;;26.12;39.03
34185;BME280;20454;48.100;11.776;2022-10-16T11:20:32;95695.72;;;25.88;39.88
34185;BME280;20454;48.100;11.776;2022-10-16T11:23:11;95696.72;;;25.50;39.28
34185;BME280;20454;48.100;11.776;2022-10-16T11:25:40;95700.03;;;25.17;40.56
34185;BME280;20454;48.100;11.776;2022-10-16T11:31:08;95690.75;;;24.40;42.47
34185;BME280;20454;48.100;11.776;2022-10-16T11:34:03;95678.53;;;24.01;43.40
34185;BME280;20454;48.100;11.776;2022-10-16T11:36:39;95695.53;;;23.83;43.40
34185;BME280;20454;48.100;11.776;2022-10-16T11:39:26;95697.09;;;23.63;41.71
34185;BME280;20454;48.100;11.776;2022-10-16T11:42:09;95692.19;;;23.64;42.50
34185;BME280;20454;48.100;11.776;2022-10-16T11:47:54;95691.84;;;23.83;40.78
34185;BME280;20454;48.100;11.776;2022-10-16T11:51:15;95694.38;;;24.05;41.39
34185;BME280;20454;48.100;11.776;2022-10-16T11:53:59;95696.84;;;24.21;41.29
34185;BME280;20454;48.100;11.776;2022-10-16T11:56:28;95697.66;;;24.35;39.51
34185;BME280;20454;48.100;11.776;2022-10-16T11:59:26;95692.81;;;24.71;40.31
34185;BME280;20454;48.100;11.776;2022-10-16T12:08:14;95685.53;;;25.94;37.95
34185;BME280;20454;48.100;11.776;2022-10-16T12:10:44;95686.34;;;25.95;37.49
34185;BME280;20454;48.100;11.776;2022-10-16T12:18:32;95687.78;;;25.48;37.23
34185;BME280;20454;48.100;11.776;2022-10-16T12:20:59;95683.78;;;25.25;37.35
34185;BME280;20454;48.100;11.776;2022-10-16T12:23:30;95691.56;;;24.86;37.85
34185;BME280;20454;48.100;11.776;2022-10-16T12:25:58;95679.81;;;24.66;37.96
34185;BME280;20454;48.100;11.776;2022-10-16T12:28:43;95683.06;;;24.61;39.19
34185;BME280;20454;48.100;11.776;2022-10-16T12:31:11;95690.75;;;24.54;39.57
34185;BME280;20454;48.100;11.776;2022-10-16T12:33:41;95689.13;;;24.35;38.89
34185;BME280;20454;48.100;11.776;2022-10-16T12:36:16;95691.56;;;24.19;39.38
34185;BME280;20454;48.100;11.776;2022-10-16T12:38:52;95681.38;;;24.01;40.04
34185;BME280;20454;48.100;11.776;2022-10-16T12:41:45;95686.22;;;23.90;41.09
34185;BME280;20454;48.100;11.776;2022-10-16T12:44:25;95683.31;;;23.76;40.46
34185;BME280;20454;48.100;11.776;2022-10-16T12:46:56;95689.00;;;23.72;40.98
34185;BME280;20454;48.100;11.776;2022-10-16T12:49:30;95693.88;;;23.68;41.46
34185;BME280;20454;48.100;11.776;2022-10-16T12:51:57;95686.50;;;23.57;41.39
34185;BME280;20454;48.100;11.776;2022-10-16T12:54:35;95685.28;;;23.47;42.12
34185;BME280;20454;48.100;11.776;2022-10-16T12:57:33;95687.25;;;23.40;42.49
34185;BME280;20454;48.100;11.776;2022-10-16T13:06:17;95691.94;;;23.08;45.03
34185;BME280;20454;48.100;11.776;2022-10-16T13:17:35;95690.09;;;23.36;44.36
34185;BME280;20454;48.100;11.776;2022-10-16T13:23:32;95687.34;;;23.64;43.03
34185;BME280;20454;48.100;11.776;2022-10-16T13:27:01;95685.78;;;23.81;41.57
34185;BME280;20454;48.100;11.776;2022-10-16T13:29:06;95685.03;;;24.12;41.44
34185;BME280;20454;48.100;11.776;2022-10-16T13:31:32;95685.47;;;24.52;41.66
34185;BME280;20454;48.100;11.776;2022-10-16T13:34:00;95687.50;;;24.83;39.71
34185;BME280;20454;48.100;11.776;2022-10-16T13:36:33;95687.44;;;25.08;43.14
34185;BME280;20454;48.100;11.776;2022-10-16T13:39:15;95691.44;;;25.42;39.07
34185;BME280;20454;48.100;11.776;2022-10-16T13:41:43;95692.56;;;25.69;41.50
34185;BME280;20454;48.100;11.776;2022-10-16T13:44:19;95690.44;;;25.87;40.63
34185;BME280;20454;48.100;11.776;2022-10-16T13:46:45;95683.00;;;26.10;41.34
34185;BME280;20454;48.100;11.776;2022-10-16T13:49:16;95681.66;;;26.25;38.39
34185;BME280;20454;48.100;11.776;2022-10-16T13:51:58;95686.03;;;26.40;37.80
34185;BME280;20454;48.100;11.776;2022-10-16T13:54:26;95690.56;;;26.34;37.48
34185;BME280;20454;48.100;11.776;2022-10-16T13:56:52;95693.53;;;26.20;38.54
34185;BME280;20454;48.100;11.776;2022-10-16T13:59:35;95696.16;;;25.83;38.61
34185;BME280;20454;48.100;11.776;2022-10-16T14:02:30;95681.66;;;25.43;38.35
34185;BME280;20454;48.100;11.776;2022-10-16T14:04:56;95689.50;;;25.11;39.78
34185;BME280;20454;48.100;11.776;2022-10-16T14:07:32;95696.03;;;24.80;39.69
34185;BME280;20454;48.100;11.776;2022-10-16T14:10:29;95691.56;;;24.44;40.45
34185;BME280;20454;48.100;11.776;2022-10-16T14:13:02;95700.47;;;24.14;40.94
34185;BME280;20454;48.100;11.776;2022-10-16T14:15:31;95706.97;;;23.94;41.32
34185;BME280;20454;48.100;11.776;2022-10-16T14:17:58;95718.63;;;23.71;42.45
34185;BME280;20454;48.100;11.776;2022-10-16T14:20:28;95718.16;;;23.52;42.72
34185;BME280;20454;48.100;11.776;2022-10-16T14:23:23;95721.69;;;23.28;45.03
34185;BME280;20454;48.100;11.776;2022-10-16T14:50:38;95719.47;;;22.03;47.17
34185;BME280;20454;48.100;11.776;2022-10-16T14:53:13;95716.97;;;21.98;48.19
34185;BME280;20454;48.100;11.776;2022-10-16T14:55:40;95721.78;;;21.90;48.76
34185;BME280;20454;48.100;11.776;2022-10-16T14:58:20;95724.19;;;21.88;48.56
34185;BME280;20454;48.100;11.776;2022-10-16T15:00:47;95725.75;;;21.82;48.33
34185;BME280;20454;48.100;11.776;2022-10-16T15:03:13;95721.63;;;21.76;48.53
34185;BME280;20454;48.100;11.776;2022-10-16T15:05:39;95726.38;;;21.69;48.51
34185;BME280;20454;48.100;11.776;2022-10-16T15:08:05;95730.72;;;21.63;48.85
34185;BME280;20454;48.100;11.776;2022-10-16T15:10:38;95727.06;;;21.59;49.93
34185;BME280;20454;48.100;11.776;2022-10-16T15:13:04;95731.38;;;21.49;50.26
34185;BME280;20454;48.100;11.776;2022-10-16T15:15:44;95721.97;;;21.42;50.99
34185;BME280;20454;48.100;11.776;2022-10-16T15:18:10;95722.69;;;21.32;51.29
34185;BME280;20454;48.100;11.776;2022-10-16T15:20:38;95726.66;;;21.27;51.81
34185;BME280;20454;48.100;11.776;2022-10-16T15:23:15;95727.31;;;21.17;52.84
34185;BME280;20454;48.100;11.776;2022-10-16T15:25:45;95732.47;;;21.08;53.91
34185;BME280;20454;48.100;11.776;2022-10-16T15:28:12;95734.31;;;20.97;54.79
34185;BME280;20454;48.100;11.776;2022-10-16T15:30:39;95733.78;;;20.88;56.34
34185;BME280;20454;48.100;11.776;2022-10-16T15:33:12;95745.41;;;20.83;57.72
34185;BME280;20454;48.100;11.776;2022-10-16T15:35:38;95736.34;;;20.71;59.39
34185;BME280;20454;48.100;11.776;2022-10-16T15:38:04;95745.97;;;20.66;59.89
34185;BME280;20454;48.100;11.776;2022-10-16T15:40:30;95743.41;;;20.58;60.63
34185;BME280;20454;48.100;11.776;2022-10-16T15:42:56;95747.31;;;20.50;61.40
34185;BME280;20454;48.100;11.776;2022-10-16T15:45:22;95751.66;;;20.44;61.11
34185;BME280;20454;48.100;11.776;2022-10-16T15:47:47;95746.25;;;20.36;60.81
34185;BME280;20454;48.100;11.776;2022-10-16T15:50:15;95759.53;;;20.32;61.60
34185;BME280;20454;48.100;11.776;2022-10-16T15:52:42;95753.31;;;20.23;62.15
34185;BME280;20454;48.100;11.776;2022-10-16T15:55:10;95744.25;;;20.14;62.71
34185;BME280;20454;48.100;11.776;2022-10-16T15:57:37;95753.88;;;20.09;63.25
34185;BME280;20454;48.100;11.776;2022-10-16T16:00:12;95752.03;;;19.98;63.28
34185;BME280;20454;48.100;11.776;2022-10-16T16:02:40;95760.38;;;19.91;63.86
34185;BME280;20454;48.100;11.776;2022-10-16T16:05:07;95758.91;;;19.78;64.83
34185;BME280;20454;48.100;11.776;2022-10-16T16:07:38;95764.28;;;19.64;65.90
34185;BME280;20454;48.100;11.776;2022-10-16T16:10:07;95762.00;;;19.50;67.07
34185;BME280;20454;48.100;11.776;2022-10-16T16:12:34;95768.50;;;19.35;67.93
34185;BME280;20454;48.100;11.776;2022-10-16T16:15:00;95770.56;;;19.19;69.68
34185;BME280;20454;48.100;11.776;2022-10-16T16:17:26;95767.06;;;19.07;70.48
34185;BME280;20454;48.100;11.776;2022-10-16T16:19:52;95771.22;;;18.94;71.61
34185;BME280;20454;48.100;11.776;2022-10-16T16:22:18;95778.59;;;18.83;72.46
34185;BME280;20454;48.100;11.776;2022-10-16T16:24:44;95779.19;;;18.73;73.96
34185;BME280;20454;48.100;11.776;2022-10-16T16:27:10;95778.09;;;18.62;75.28
34185;BME280;20454;48.100;11.776;2022-10-16T16:29:36;95783.03;;;18.49;76.43
34185;BME280;20454;48.100;11.776;2022-10-16T16:32:02;95786.44;;;18.39;77.47
34185;BME280;20454;48.100;11.776;2022-10-16T16:34:28;95783.31;;;18.29;78.54
34185;BME280;20454;48.100;11.776;2022-10-16T16:36:55;95793.94;;;18.20;79.53
34185;BME280;20454;48.100;11.776;2022-10-16T16:39:22;95784.31;;;18.05;80.24
34185;BME280;20454;48.100;11.776;2022-10-16T16:41:48;95789.28;;;17.96;81.01
34185;BME280;20454;48.100;11.776;2022-10-16T16:44:15;95791.81;;;17.86;82.00
34185;BME280;20454;48.100;11.776;2022-10-16T16:46:43;95788.34;;;17.77;82.75
34185;BME280;20454;48.100;11.776;2022-10-16T16:49:11;95790.88;;;17.66;83.15
34185;BME280;20454;48.100;11.776;2022-10-16T17:41:33;95864.44;;;16.29;95.56
34185;BME280;20454;48.100;11.776;2022-10-16T17:43:59;95866.31;;;16.25;95.76
34185;BME280;20454;48.100;11.776;2022-10-16T17:46:26;95866.53;;;16.20;96.19
34185;BME280;20454;48.100;11.776;2022-10-16T17:48:53;95874.13;;;16.20;96.40
34185;BME280;20454;48.100;11.776;2022-10-16T17:51:23;95871.09;;;16.13;96.83
34185;BME280;20454;48.100;11.776;2022-10-16T17:53:52;95889.81;;;16.09;97.05
34185;BME280;20454;48.100;11.776;2022-10-16T17:56:19;95876.44;;;16.06;97.37
34185;BME280;20454;48.100;11.776;2022-10-16T17:58:49;95885.91;;;16.01;97.77
34185;BME280;20454;48.100;11.776;2022-10-16T18:01:22;95890.25;;;15.99;97.97
34185;BME280;20454;48.100;11.776;2022-10-16T18:04:04;95892.78;;;15.92;98.13
34185;BME280;20454;48.100;11.776;2022-10-16T18:06:32;95894.28;;;15.89;98.43
34185;BME280;20454;48.100;11.776;2022-10-16T18:08:59;95899.78;;;15.86;98.56
34185;BME280;20454;48.100;11.776;2022-10-16T18:11:26;95901.31;;;15.83;98.77
34185;BME280;20454;48.100;11.776;2022-10-16T18:13:56;95911.59;;;15.79;99.13
34185;BME280;20454;48.100;11.776;2022-10-16T18:16:23;95896.13;;;15.73;99.17
34185;BME280;20454;48.100;11.776;2022-10-16T18:18:49;95908.19;;;15.74;99.17
34185;BME280;20454;48.100;11.776;2022-10-16T18:21:17;95901.47;;;15.66;99.44
34185;BME280;20454;48.100;11.776;2022-10-16T18:23:44;95905.44;;;15.65;99.49
34185;BME280;20454;48.100;11.776;2022-10-16T18:26:11;95910.09;;;15.61;99.38
34185;BME280;20454;48.100;11.776;2022-10-16T18:28:37;95908.00;;;15.58;99.57
34185;BME280;20454;48.100;11.776;2022-10-16T18:31:13;95924.34;;;15.56;99.46
34185;BME280;20454;48.100;11.776;2022-10-16T18:33:40;95921.75;;;15.51;99.86